sensor_id;sensor_type;location;lat;lon;timestamp;pressure;altitude;pressure_sealevel;temperature
74449;BMP280;62878;51.026;4.472;2022-09-09T00:04:39;-6056.13;;;21.35
74449;BMP280;62878;51.026;4.472;2022-09-09T00:07:18;-6056.22;;;21.35
74449;BMP280;62878;51.026;4.472;2022-09-09T00:12:34;-6055.03;;;21.28
74449;BMP280;62878;51.026;4.472;2022-09-09T00:15:10;-6055.88;;;21.33
74449;BMP280;62878;51.026;4.472;2022-09-09T00:17:55;-6055.72;;;21.32
74449;BMP280;62878;51.026;4.472;2022-09-09T00:23:08;-6054.38;;;21.24
74449;BMP280;62878;51.026;4.472;2022-09-09T00:25:49;-6055.22;;;21.29
74449;BMP280;62878;51.026;4.472;2022-09-09T00:28:20;-6054.38;;;21.24
74449;BMP280;62878;51.026;4.472;2022-09-09T00:30:47;-6054.97;;;21.28
74449;BMP280;62878;51.026;4.472;2022-09-09T00:33:15;-6055.28;;;21.30
74449;BMP280;62878;51.026;4.472;2022-09-09T00:35:47;-6055.22;;;21.29
74449;BMP280;62878;51.026;4.472;2022-09-09T00:38:26;-6055.38;;;21.30
74449;BMP280;62878;51.026;4.472;2022-09-09T00:43:33;-6055.13;;;21.29
74449;BMP280;62878;51.026;4.472;2022-09-09T00:51:25;-6054.97;;;21.28
74449;BMP280;62878;51.026;4.472;2022-09-09T00:56:57;-6054.63;;;21.26
74449;BMP280;62878;51.026;4.472;2022-09-09T01:02:07;-6054.19;;;21.23
74449;BMP280;62878;51.026;4.472;2022-09-09T01:04:38;-6054.53;;;21.25
74449;BMP280;62878;51.026;4.472;2022-09-09T01:07:16;-6053.53;;;21.19
74449;BMP280;62878;51.026;4.472;2022-09-09T01:09:52;-6054.53;;;21.25
74449;BMP280;62878;51.026;4.472;2022-09-09T01:12:24;-6054.53;;;21.25
74449;BMP280;62878;51.026;4.472;2022-09-09T01:15:23;-6053.84;;;21.21
74449;BMP280;62878;51.026;4.472;2022-09-09T01:17:58;-6054.38;;;21.24
74449;BMP280;62878;51.026;4.472;2022-09-09T01:20:31;-6054.19;;;21.23
74449;BMP280;62878;51.026;4.472;2022-09-09T01:23:27;-6054.38;;;21.24
74449;BMP280;62878;51.026;4.472;2022-09-09T01:28:34;-6052.69;;;21.14
74449;BMP280;62878;51.026;4.472;2022-09-09T01:31:03;-6053.94;;;21.21
74449;BMP280;62878;51.026;4.472;2022-09-09T01:33:29;-6053.84;;;21.21
74449;BMP280;62878;51.026;4.472;2022-09-09T01:38:33;-6053.69;;;21.20
74449;BMP280;62878;51.026;4.472;2022-09-09T01:40:59;-6052.50;;;21.13
74449;BMP280;62878;51.026;4.472;2022-09-09T01:43:26;-6053.44;;;21.18
74449;BMP280;62878;51.026;4.472;2022-09-09T01:45:54;-6053.63;;;21.19
74449;BMP280;62878;51.026;4.472;2022-09-09T01:48:22;-6053.44;;;21.18
74449;BMP280;62878;51.026;4.472;2022-09-09T01:50:48;-6053.34;;;21.18
74449;BMP280;62878;51.026;4.472;2022-09-09T01:53:15;-6053.34;;;21.18
74449;BMP280;62878;51.026;4.472;2022-09-09T01:55:52;-6052.50;;;21.13
74449;BMP280;62878;51.026;4.472;2022-09-09T02:01:12;-6053.19;;;21.17
74449;BMP280;62878;51.026;4.472;2022-09-09T02:03:44;-6053.03;;;21.16
74449;BMP280;62878;51.026;4.472;2022-09-09T02:06:29;-6052.94;;;21.15
74449;BMP280;62878;51.026;4.472;2022-09-09T02:08:56;-6053.09;;;21.16
74449;BMP280;62878;51.026;4.472;2022-09-09T02:11:24;-6052.84;;;21.15
74449;BMP280;62878;51.026;4.472;2022-09-09T02:13:53;-6052.84;;;21.15
74449;BMP280;62878;51.026;4.472;2022-09-09T02:16:34;-6052.69;;;21.14
74449;BMP280;62878;51.026;4.472;2022-09-09T02:19:17;-6052.69;;;21.14
74449;BMP280;62878;51.026;4.472;2022-09-09T02:21:52;-6051.44;;;21.06
74449;BMP280;62878;51.026;4.472;2022-09-09T02:24:18;-6052.34;;;21.12
74449;BMP280;62878;51.026;4.472;2022-09-09T02:26:45;-6052.00;;;21.10
74449;BMP280;62878;51.026;4.472;2022-09-09T02:29:16;-6052.25;;;21.11
74449;BMP280;62878;51.026;4.472;2022-09-09T02:31:45;-6050.50;;;21.01
74449;BMP280;62878;51.026;4.472;2022-09-09T02:34:13;-6052.19;;;21.11
74449;BMP280;62878;51.026;4.472;2022-09-09T02:36:41;-6050.16;;;20.99
74449;BMP280;62878;51.026;4.472;2022-09-09T02:39:09;-6052.19;;;21.11
74449;BMP280;62878;51.026;4.472;2022-09-09T02:41:38;-6052.00;;;21.10
74449;BMP280;62878;51.026;4.472;2022-09-09T02:44:12;-6052.00;;;21.10
74449;BMP280;62878;51.026;4.472;2022-09-09T02:49:22;-6051.69;;;21.08
74449;BMP280;62878;51.026;4.472;2022-09-09T02:54:37;-6051.59;;;21.07
74449;BMP280;62878;51.026;4.472;2022-09-09T02:59:29;-6051.59;;;21.07
74449;BMP280;62878;51.026;4.472;2022-09-09T03:01:55;-6049.50;;;20.95
74449;BMP280;62878;51.026;4.472;2022-09-09T03:04:21;-6051.44;;;21.06
74449;BMP280;62878;51.026;4.472;2022-09-09T03:06:46;-6050.34;;;21.00
74449;BMP280;62878;51.026;4.472;2022-09-09T03:09:12;-6048.66;;;20.90
74449;BMP280;62878;51.026;4.472;2022-09-09T03:11:37;-6045.47;;;20.71
74449;BMP280;62878;51.026;4.472;2022-09-09T03:14:04;-6051.09;;;21.04
74449;BMP280;62878;51.026;4.472;2022-09-09T03:16:29;-6051.19;;;21.05
74449;BMP280;62878;51.026;4.472;2022-09-09T03:18:55;-6050.66;;;21.02
74449;BMP280;62878;51.026;4.472;2022-09-09T03:21:20;-6050.84;;;21.03
74449;BMP280;62878;51.026;4.472;2022-09-09T03:23:46;-6050.00;;;20.98
74449;BMP280;62878;51.026;4.472;2022-09-09T03:26:12;-6050.41;;;21.00
74449;BMP280;62878;51.026;4.472;2022-09-09T03:28:40;-6050.66;;;21.02
74449;BMP280;62878;51.026;4.472;2022-09-09T03:31:06;-6049.41;;;20.94
74449;BMP280;62878;51.026;4.472;2022-09-09T03:33:32;-6049.66;;;20.96
74449;BMP280;62878;51.026;4.472;2022-09-09T03:35:59;-6050.59;;;21.01
74449;BMP280;62878;51.026;4.472;2022-09-09T03:38:24;-6050.50;;;21.01
74449;BMP280;62878;51.026;4.472;2022-09-09T03:40:55;-6050.50;;;21.01
74449;BMP280;62878;51.026;4.472;2022-09-09T03:43:23;-6050.50;;;21.01
74449;BMP280;62878;51.026;4.472;2022-09-09T03:45:49;-6050.16;;;20.99
74449;BMP280;62878;51.026;4.472;2022-09-09T03:48:15;-6046.13;;;20.75
74449;BMP280;62878;51.026;4.472;2022-09-09T03:50:45;-6050.09;;;20.98
74449;BMP280;62878;51.026;4.472;2022-09-09T03:53:10;-6048.56;;;20.89
74449;BMP280;62878;51.026;4.472;2022-09-09T03:55:35;-6049.41;;;20.94
74449;BMP280;62878;51.026;4.472;2022-09-09T03:58:01;-6050.00;;;20.98
74449;BMP280;62878;51.026;4.472;2022-09-09T04:00:26;-6048.81;;;20.91
74449;BMP280;62878;51.026;4.472;2022-09-09T04:02:51;-6040.16;;;20.39
74449;BMP280;62878;51.026;4.472;2022-09-09T04:05:19;-6047.97;;;20.86
74449;BMP280;62878;51.026;4.472;2022-09-09T04:07:44;-6050.00;;;20.98
74449;BMP280;62878;51.026;4.472;2022-09-09T04:10:09;-6048.50;;;20.89
74449;BMP280;62878;51.026;4.472;2022-09-09T04:12:35;-6049.59;;;20.95
74449;BMP280;62878;51.026;4.472;2022-09-09T04:15:00;-6047.66;;;20.84
74449;BMP280;62878;51.026;4.472;2022-09-09T04:17:27;-6049.25;;;20.93
74449;BMP280;62878;51.026;4.472;2022-09-09T04:19:52;-6049.41;;;20.94
74449;BMP280;62878;51.026;4.472;2022-09-09T04:22:18;-6049.31;;;20.94
74449;BMP280;62878;51.026;4.472;2022-09-09T04:24:43;-6047.16;;;20.81
74449;BMP280;62878;51.026;4.472;2022-09-09T04:27:08;-6047.16;;;20.81
74449;BMP280;62878;51.026;4.472;2022-09-09T04:29:33;-6049.16;;;20.93
74449;BMP280;62878;51.026;4.472;2022-09-09T04:31:59;-6048.56;;;20.89
74449;BMP280;62878;51.026;4.472;2022-09-09T04:34:24;-6049.00;;;20.92
74449;BMP280;62878;51.026;4.472;2022-09-09T04:36:50;-6048.16;;;20.87
74449;BMP280;62878;51.026;4.472;2022-09-09T04:39:17;-6048.81;;;20.91
74449;BMP280;62878;51.026;4.472;2022-09-09T04:41:42;-6048.81;;;20.91
74449;BMP280;62878;51.026;4.472;2022-09-09T04:44:07;-6046.47;;;20.77
74449;BMP280;62878;51.026;4.472;2022-09-09T04:46:33;-6047.47;;;20.83
74449;BMP280;62878;51.026;4.472;2022-09-09T04:48:59;-6043.94;;;20.61
74449;BMP280;62878;51.026;4.472;2022-09-09T04:51:25;-6048.66;;;20.90
74449;BMP280;62878;51.026;4.472;2022-09-09T04:53:50;-6048.66;;;20.90
74449;BMP280;62878;51.026;4.472;2022-09-09T04:56:17;-6048.31;;;20.88
74449;BMP280;62878;51.026;4.472;2022-09-09T04:58:43;-6048.31;;;20.88
74449;BMP280;62878;51.026;4.472;2022-09-09T05:01:20;-6048.56;;;20.89
74449;BMP280;62878;51.026;4.472;2022-09-09T05:03:47;-6048.06;;;20.86
74449;BMP280;62878;51.026;4.472;2022-09-09T05:06:17;-6048.06;;;20.86
74449;BMP280;62878;51.026;4.472;2022-09-09T05:08:44;-6046.72;;;20.78
74449;BMP280;62878;51.026;4.472;2022-09-09T05:11:19;-6046.81;;;20.79
74449;BMP280;62878;51.026;4.472;2022-09-09T05:13:45;-6045.28;;;20.70
74449;BMP280;62878;51.026;4.472;2022-09-09T05:16:11;-6048.06;;;20.86
74449;BMP280;62878;51.026;4.472;2022-09-09T05:18:38;-6047.41;;;20.82
74449;BMP280;62878;51.026;4.472;2022-09-09T05:21:03;-6046.56;;;20.77
74449;BMP280;62878;51.026;4.472;2022-09-09T05:23:29;-6046.72;;;20.78
74449;BMP280;62878;51.026;4.472;2022-09-09T05:25:56;-6041.78;;;20.48
74449;BMP280;62878;51.026;4.472;2022-09-09T05:28:22;-6045.63;;;20.72
74449;BMP280;62878;51.026;4.472;2022-09-09T05:30:55;-6046.63;;;20.78
74449;BMP280;62878;51.026;4.472;2022-09-09T05:33:20;-6046.31;;;20.76
74449;BMP280;62878;51.026;4.472;2022-09-09T05:35:46;-6045.03;;;20.68
74449;BMP280;62878;51.026;4.472;2022-09-09T05:38:11;-6044.47;;;20.64
74449;BMP280;62878;51.026;4.472;2022-09-09T05:40:38;-6046.72;;;20.78
74449;BMP280;62878;51.026;4.472;2022-09-09T05:43:03;-6045.13;;;20.69
74449;BMP280;62878;51.026;4.472;2022-09-09T05:45:28;-6046.31;;;20.76
74449;BMP280;62878;51.026;4.472;2022-09-09T05:47:54;-6047.16;;;20.81
74449;BMP280;62878;51.026;4.472;2022-09-09T05:50:19;-6047.22;;;20.81
74449;BMP280;62878;51.026;4.472;2022-09-09T05:52:44;-6046.47;;;20.77
74449;BMP280;62878;51.026;4.472;2022-09-09T05:55:10;-6045.81;;;20.73
74449;BMP280;62878;51.026;4.472;2022-09-09T05:57:35;-6050.00;;;20.98
74449;BMP280;62878;51.026;4.472;2022-09-09T06:00:01;-6051.69;;;21.08
74449;BMP280;62878;51.026;4.472;2022-09-09T06:02:26;-6051.59;;;21.07
74449;BMP280;62878;51.026;4.472;2022-09-09T06:04:51;-6055.03;;;21.28
74449;BMP280;62878;51.026;4.472;2022-09-09T06:07:17;-6056.22;;;21.35
74449;BMP280;62878;51.026;4.472;2022-09-09T06:09:42;-6053.53;;;21.19
74449;BMP280;62878;51.026;4.472;2022-09-09T06:12:08;-6054.38;;;21.24
74449;BMP280;62878;51.026;4.472;2022-09-09T06:14:34;-6057.56;;;21.43
74449;BMP280;62878;51.026;4.472;2022-09-09T06:16:59;-6057.22;;;21.41
74449;BMP280;62878;51.026;4.472;2022-09-09T06:19:24;-6056.38;;;21.36
74449;BMP280;62878;51.026;4.472;2022-09-09T06:21:51;-6057.13;;;21.41
74449;BMP280;62878;51.026;4.472;2022-09-09T06:24:16;-6056.13;;;21.35
74449;BMP280;62878;51.026;4.472;2022-09-09T06:26:44;-6057.38;;;21.42
74449;BMP280;62878;51.026;4.472;2022-09-09T06:29:10;-6057.81;;;21.45
74449;BMP280;62878;51.026;4.472;2022-09-09T06:31:36;-6055.78;;;21.33
74449;BMP280;62878;51.026;4.472;2022-09-09T06:34:04;-6057.38;;;21.42
74449;BMP280;62878;51.026;4.472;2022-09-09T06:36:35;-6057.22;;;21.41
74449;BMP280;62878;51.026;4.472;2022-09-09T06:39:02;-6057.97;;;21.46
74449;BMP280;62878;51.026;4.472;2022-09-09T06:41:29;-6056.81;;;21.39
74449;BMP280;62878;51.026;4.472;2022-09-09T06:43:55;-6058.22;;;21.47
74449;BMP280;62878;51.026;4.472;2022-09-09T06:46:27;-6058.16;;;21.47
74449;BMP280;62878;51.026;4.472;2022-09-09T06:48:54;-6055.72;;;21.32
74449;BMP280;62878;51.026;4.472;2022-09-09T06:51:26;-6058.41;;;21.48
74449;BMP280;62878;51.026;4.472;2022-09-09T06:53:56;-6058.41;;;21.48
74449;BMP280;62878;51.026;4.472;2022-09-09T06:56:27;-6057.13;;;21.41
74449;BMP280;62878;51.026;4.472;2022-09-09T06:58:55;-6056.28;;;21.36
74449;BMP280;62878;51.026;4.472;2022-09-09T07:01:33;-6058.56;;;21.49
74449;BMP280;62878;51.026;4.472;2022-09-09T07:03:59;-6058.72;;;21.50
74449;BMP280;62878;51.026;4.472;2022-09-09T07:06:36;-6058.56;;;21.49
74449;BMP280;62878;51.026;4.472;2022-09-09T07:09:08;-6058.56;;;21.49
74449;BMP280;62878;51.026;4.472;2022-09-09T07:11:45;-6058.56;;;21.49
74449;BMP280;62878;51.026;4.472;2022-09-09T07:14:11;-6055.78;;;21.33
74449;BMP280;62878;51.026;4.472;2022-09-09T07:16:40;-6057.97;;;21.46
74449;BMP280;62878;51.026;4.472;2022-09-09T07:19:06;-6057.38;;;21.42
74449;BMP280;62878;51.026;4.472;2022-09-09T07:21:34;-6058.81;;;21.51
74449;BMP280;62878;51.026;4.472;2022-09-09T07:24:00;-6058.66;;;21.50
74449;BMP280;62878;51.026;4.472;2022-09-09T07:26:28;-6059.22;;;21.53
74449;BMP280;62878;51.026;4.472;2022-09-09T07:28:54;-6059.41;;;21.54
74449;BMP280;62878;51.026;4.472;2022-09-09T07:31:26;-6059.22;;;21.53
74449;BMP280;62878;51.026;4.472;2022-09-09T07:33:52;-6058.97;;;21.52
74449;BMP280;62878;51.026;4.472;2022-09-09T07:36:23;-6059.22;;;21.53
74449;BMP280;62878;51.026;4.472;2022-09-09T07:38:53;-6059.41;;;21.54
74449;BMP280;62878;51.026;4.472;2022-09-09T07:41:28;-6057.47;;;21.43
74449;BMP280;62878;51.026;4.472;2022-09-09T07:43:55;-6059.31;;;21.54
74449;BMP280;62878;51.026;4.472;2022-09-09T07:46:23;-6059.75;;;21.56
74449;BMP280;62878;51.026;4.472;2022-09-09T07:48:52;-6059.75;;;21.56
74449;BMP280;62878;51.026;4.472;2022-09-09T07:51:25;-6060.50;;;21.61
74449;BMP280;62878;51.026;4.472;2022-09-09T07:53:54;-6060.34;;;21.60
74449;BMP280;62878;51.026;4.472;2022-09-09T07:56:20;-6060.66;;;21.62
74449;BMP280;62878;51.026;4.472;2022-09-09T07:58:50;-6059.75;;;21.56
74449;BMP280;62878;51.026;4.472;2022-09-09T08:04:10;-6055.53;;;21.31
74449;BMP280;62878;51.026;4.472;2022-09-09T08:06:41;-6057.38;;;21.42
74449;BMP280;62878;51.026;4.472;2022-09-09T08:09:07;-6058.81;;;21.51
74449;BMP280;62878;51.026;4.472;2022-09-09T08:11:33;-6058.91;;;21.51
74449;BMP280;62878;51.026;4.472;2022-09-09T08:13:59;-6058.56;;;21.49
74449;BMP280;62878;51.026;4.472;2022-09-09T08:16:27;-6058.66;;;21.50
74449;BMP280;62878;51.026;4.472;2022-09-09T08:18:54;-6058.41;;;21.48
74449;BMP280;62878;51.026;4.472;2022-09-09T08:21:25;-6059.91;;;21.57
74449;BMP280;62878;51.026;4.472;2022-09-09T08:23:53;-6060.75;;;21.62
74449;BMP280;62878;51.026;4.472;2022-09-09T08:26:21;-6061.25;;;21.65
74449;BMP280;62878;51.026;4.472;2022-09-09T08:28:53;-6061.25;;;21.65
74449;BMP280;62878;51.026;4.472;2022-09-09T08:31:25;-6061.34;;;21.66
74449;BMP280;62878;51.026;4.472;2022-09-09T08:33:50;-6061.16;;;21.65
74449;BMP280;62878;51.026;4.472;2022-09-09T08:36:18;-6060.16;;;21.59
74449;BMP280;62878;51.026;4.472;2022-09-09T08:38:47;-6061.25;;;21.65
74449;BMP280;62878;51.026;4.472;2022-09-09T08:43:43;-6060.41;;;21.60
74449;BMP280;62878;51.026;4.472;2022-09-09T08:46:17;-6060.91;;;21.63
74449;BMP280;62878;51.026;4.472;2022-09-09T08:49:16;-6057.72;;;21.44
74449;BMP280;62878;51.026;4.472;2022-09-09T08:51:43;-6052.19;;;21.11
74449;BMP280;62878;51.026;4.472;2022-09-09T08:54:09;-6040.69;;;20.42
74449;BMP280;62878;51.026;4.472;2022-09-09T08:56:35;-6047.66;;;20.84
74449;BMP280;62878;51.026;4.472;2022-09-09T08:59:13;-6051.00;;;21.04
74449;BMP280;62878;51.026;4.472;2022-09-09T09:02:08;-6054.13;;;21.22
74449;BMP280;62878;51.026;4.472;2022-09-09T09:04:48;-6046.31;;;20.76
74449;BMP280;62878;51.026;4.472;2022-09-09T09:07:28;-6049.00;;;20.92
74449;BMP280;62878;51.026;4.472;2022-09-09T09:10:36;-6053.28;;;21.17
74449;BMP280;62878;51.026;4.472;2022-09-09T09:13:10;-6054.97;;;21.28
74449;BMP280;62878;51.026;4.472;2022-09-09T09:15:38;-6055.88;;;21.33
74449;BMP280;62878;51.026;4.472;2022-09-09T09:18:04;-6055.13;;;21.29
74449;BMP280;62878;51.026;4.472;2022-09-09T09:20:50;-6054.28;;;21.23
74449;BMP280;62878;51.026;4.472;2022-09-09T09:23:25;-6053.53;;;21.19
74449;BMP280;62878;51.026;4.472;2022-09-09T09:25:56;-6056.13;;;21.35
74449;BMP280;62878;51.026;4.472;2022-09-09T09:28:26;-6057.22;;;21.41
74449;BMP280;62878;51.026;4.472;2022-09-09T09:30:58;-6055.53;;;21.31
74449;BMP280;62878;51.026;4.472;2022-09-09T09:33:38;-6055.72;;;21.32
74449;BMP280;62878;51.026;4.472;2022-09-09T09:36:09;-6050.25;;;20.99
74449;BMP280;62878;51.026;4.472;2022-09-09T09:38:36;-6052.00;;;21.10
74449;BMP280;62878;51.026;4.472;2022-09-09T09:41:02;-6057.22;;;21.41
74449;BMP280;62878;51.026;4.472;2022-09-09T09:43:30;-6057.22;;;21.41
74449;BMP280;62878;51.026;4.472;2022-09-09T09:45:56;-6054.13;;;21.22
74449;BMP280;62878;51.026;4.472;2022-09-09T09:48:26;-6057.06;;;21.40
74449;BMP280;62878;51.026;4.472;2022-09-09T09:50:57;-6056.56;;;21.37
74449;BMP280;62878;51.026;4.472;2022-09-09T09:53:25;-6055.88;;;21.33
74449;BMP280;62878;51.026;4.472;2022-09-09T09:58:22;-6056.38;;;21.36
74449;BMP280;62878;51.026;4.472;2022-09-09T10:00:50;-6057.56;;;21.43
74449;BMP280;62878;51.026;4.472;2022-09-09T10:03:30;-6057.47;;;21.43
74449;BMP280;62878;51.026;4.472;2022-09-09T10:05:57;-6054.53;;;21.25
74449;BMP280;62878;51.026;4.472;2022-09-09T10:08:25;-6057.22;;;21.41
74449;BMP280;62878;51.026;4.472;2022-09-09T10:11:30;-6057.06;;;21.40
74449;BMP280;62878;51.026;4.472;2022-09-09T11:14:29;-6057.38;;;21.42
74449;BMP280;62878;51.026;4.472;2022-09-09T11:17:01;-6056.47;;;21.37
74449;BMP280;62878;51.026;4.472;2022-09-09T11:19:38;-6057.47;;;21.43
74449;BMP280;62878;51.026;4.472;2022-09-09T11:24:56;-6056.97;;;21.40
74449;BMP280;62878;51.026;4.472;2022-09-09T11:33:06;-6056.72;;;21.38
74449;BMP280;62878;51.026;4.472;2022-09-09T11:41:05;-6054.88;;;21.27
74449;BMP280;62878;51.026;4.472;2022-09-09T11:46:03;-6057.06;;;21.40
74449;BMP280;62878;51.026;4.472;2022-09-09T11:48:33;-6054.78;;;21.27
74449;BMP280;62878;51.026;4.472;2022-09-09T11:53:27;-6054.78;;;21.27
74449;BMP280;62878;51.026;4.472;2022-09-09T11:56:11;-6057.06;;;21.40
74449;BMP280;62878;51.026;4.472;2022-09-09T11:58:41;-6057.13;;;21.41
74449;BMP280;62878;51.026;4.472;2022-09-09T12:01:25;-6056.88;;;21.39
74449;BMP280;62878;51.026;4.472;2022-09-09T12:06:50;-6056.72;;;21.38
74449;BMP280;62878;51.026;4.472;2022-09-09T12:09:25;-6056.88;;;21.39
74449;BMP280;62878;51.026;4.472;2022-09-09T12:11:52;-6057.06;;;21.40
74449;BMP280;62878;51.026;4.472;2022-09-09T12:17:24;-6057.38;;;21.42
74449;BMP280;62878;51.026;4.472;2022-09-09T12:20:23;-6057.47;;;21.43
74449;BMP280;62878;51.026;4.472;2022-09-09T12:22:57;-6057.56;;;21.43
74449;BMP280;62878;51.026;4.472;2022-09-09T12:25:57;-6056.13;;;21.35
74449;BMP280;62878;51.026;4.472;2022-09-09T12:33:46;-6057.06;;;21.40
74449;BMP280;62878;51.026;4.472;2022-09-09T12:36:32;-6057.13;;;21.41
74449;BMP280;62878;51.026;4.472;2022-09-09T12:39:10;-6055.53;;;21.31
74449;BMP280;62878;51.026;4.472;2022-09-09T12:41:51;-6057.22;;;21.41
74449;BMP280;62878;51.026;4.472;2022-09-09T12:44:21;-6054.03;;;21.22
74449;BMP280;62878;51.026;4.472;2022-09-09T12:46:46;-6057.56;;;21.43
74449;BMP280;62878;51.026;4.472;2022-09-09T12:49:42;-6056.56;;;21.37
74449;BMP280;62878;51.026;4.472;2022-09-09T12:52:15;-6057.63;;;21.44
74449;BMP280;62878;51.026;4.472;2022-09-09T12:54:45;-6057.56;;;21.43
74449;BMP280;62878;51.026;4.472;2022-09-09T12:57:12;-6057.81;;;21.45
74449;BMP280;62878;51.026;4.472;2022-09-09T12:59:41;-6056.88;;;21.39
74449;BMP280;62878;51.026;4.472;2022-09-09T13:02:23;-6057.56;;;21.43
74449;BMP280;62878;51.026;4.472;2022-09-09T13:04:49;-6057.63;;;21.44
74449;BMP280;62878;51.026;4.472;2022-09-09T13:07:19;-6057.72;;;21.44
74449;BMP280;62878;51.026;4.472;2022-09-09T13:09:46;-6058.31;;;21.48
74449;BMP280;62878;51.026;4.472;2022-09-09T13:12:21;-6057.97;;;21.46
74449;BMP280;62878;51.026;4.472;2022-09-09T13:14:55;-6058.16;;;21.47
74449;BMP280;62878;51.026;4.472;2022-09-09T13:17:24;-6058.06;;;21.46
74449;BMP280;62878;51.026;4.472;2022-09-09T13:19:50;-6058.06;;;21.46
74449;BMP280;62878;51.026;4.472;2022-09-09T13:22:31;-6058.22;;;21.47
74449;BMP280;62878;51.026;4.472;2022-09-09T13:28:03;-6058.66;;;21.50
74449;BMP280;62878;51.026;4.472;2022-09-09T13:30:34;-6059.31;;;21.54
74449;BMP280;62878;51.026;4.472;2022-09-09T13:35:35;-6059.91;;;21.57
74449;BMP280;62878;51.026;4.472;2022-09-09T13:38:10;-6060.25;;;21.59
74449;BMP280;62878;51.026;4.472;2022-09-09T13:40:37;-6058.22;;;21.47
74449;BMP280;62878;51.026;4.472;2022-09-09T13:43:03;-6057.88;;;21.45
74449;BMP280;62878;51.026;4.472;2022-09-09T13:45:28;-6059.81;;;21.57
74449;BMP280;62878;51.026;4.472;2022-09-09T13:47:55;-6057.47;;;21.43
74449;BMP280;62878;51.026;4.472;2022-09-09T13:50:30;-6059.41;;;21.54
74449;BMP280;62878;51.026;4.472;2022-09-09T13:52:59;-6058.72;;;21.50
74449;BMP280;62878;51.026;4.472;2022-09-09T13:55:29;-6058.56;;;21.49
74449;BMP280;62878;51.026;4.472;2022-09-09T13:57:55;-6058.22;;;21.47
74449;BMP280;62878;51.026;4.472;2022-09-09T14:00:22;-6057.63;;;21.44
74449;BMP280;62878;51.026;4.472;2022-09-09T14:02:48;-6057.56;;;21.43
74449;BMP280;62878;51.026;4.472;2022-09-09T14:05:14;-6054.28;;;21.23
74449;BMP280;62878;51.026;4.472;2022-09-09T14:07:41;-6056.56;;;21.37
74449;BMP280;62878;51.026;4.472;2022-09-09T14:10:11;-6058.06;;;21.46
74449;BMP280;62878;51.026;4.472;2022-09-09T14:12:37;-6058.81;;;21.51
74449;BMP280;62878;51.026;4.472;2022-09-09T14:15:04;-6058.41;;;21.48
74449;BMP280;62878;51.026;4.472;2022-09-09T14:17:30;-6056.03;;;21.34
74449;BMP280;62878;51.026;4.472;2022-09-09T14:19:56;-6059.50;;;21.55
74449;BMP280;62878;51.026;4.472;2022-09-09T14:22:22;-6059.41;;;21.54
74449;BMP280;62878;51.026;4.472;2022-09-09T14:24:49;-6058.41;;;21.48
74449;BMP280;62878;51.026;4.472;2022-09-09T14:27:14;-6058.22;;;21.47
74449;BMP280;62878;51.026;4.472;2022-09-09T14:29:40;-6058.06;;;21.46
74449;BMP280;62878;51.026;4.472;2022-09-09T14:32:05;-6058.22;;;21.47
74449;BMP280;62878;51.026;4.472;2022-09-09T14:34:31;-6056.56;;;21.37
74449;BMP280;62878;51.026;4.472;2022-09-09T14:36:58;-6057.06;;;21.40
74449;BMP280;62878;51.026;4.472;2022-09-09T14:39:23;-6055.28;;;21.30
74449;BMP280;62878;51.026;4.472;2022-09-09T14:41:48;-6055.53;;;21.31
74449;BMP280;62878;51.026;4.472;2022-09-09T14:44:13;-6058.31;;;21.48
74449;BMP280;62878;51.026;4.472;2022-09-09T14:46:41;-6058.22;;;21.47
74449;BMP280;62878;51.026;4.472;2022-09-09T14:49:07;-6055.03;;;21.28
74449;BMP280;62878;51.026;4.472;2022-09-09T14:51:32;-6058.91;;;21.51
74449;BMP280;62878;51.026;4.472;2022-09-09T14:53:58;-6057.06;;;21.40
74449;BMP280;62878;51.026;4.472;2022-09-09T14:56:26;-6060.06;;;21.58
74449;BMP280;62878;51.026;4.472;2022-09-09T14:58:54;-6060.00;;;21.58
74449;BMP280;62878;51.026;4.472;2022-09-09T15:01:20;-6059.66;;;21.56
74449;BMP280;62878;51.026;4.472;2022-09-09T15:04:01;-6059.22;;;21.53
74449;BMP280;62878;51.026;4.472;2022-09-09T15:06:29;-6058.56;;;21.49
74449;BMP280;62878;51.026;4.472;2022-09-09T15:08:55;-6058.81;;;21.51
74449;BMP280;62878;51.026;4.472;2022-09-09T15:11:23;-6058.47;;;21.49
74449;BMP280;62878;51.026;4.472;2022-09-09T15:13:51;-6055.38;;;21.30
74449;BMP280;62878;51.026;4.472;2022-09-09T15:16:21;-6058.06;;;21.46
74449;BMP280;62878;51.026;4.472;2022-09-09T15:18:51;-6056.03;;;21.34
74449;BMP280;62878;51.026;4.472;2022-09-09T15:21:18;-6057.81;;;21.45
74449;BMP280;62878;51.026;4.472;2022-09-09T15:23:44;-6055.97;;;21.34
74449;BMP280;62878;51.026;4.472;2022-09-09T15:26:10;-6057.56;;;21.43
74449;BMP280;62878;51.026;4.472;2022-09-09T15:28:37;-6054.78;;;21.27
74449;BMP280;62878;51.026;4.472;2022-09-09T15:31:09;-6057.38;;;21.42
74449;BMP280;62878;51.026;4.472;2022-09-09T15:33:36;-6055.72;;;21.32
74449;BMP280;62878;51.026;4.472;2022-09-09T15:36:15;-6056.72;;;21.38
74449;BMP280;62878;51.026;4.472;2022-09-09T15:38:41;-6057.72;;;21.44
74449;BMP280;62878;51.026;4.472;2022-09-09T15:41:07;-6056.22;;;21.35
74449;BMP280;62878;51.026;4.472;2022-09-09T15:43:32;-6058.06;;;21.46
74449;BMP280;62878;51.026;4.472;2022-09-09T15:46:06;-6057.97;;;21.46
74449;BMP280;62878;51.026;4.472;2022-09-09T15:48:39;-6055.47;;;21.31
74449;BMP280;62878;51.026;4.472;2022-09-09T15:51:05;-6056.88;;;21.39
74449;BMP280;62878;51.026;4.472;2022-09-09T15:53:30;-6050.16;;;20.99
74449;BMP280;62878;51.026;4.472;2022-09-09T15:55:59;-6045.28;;;20.70
74449;BMP280;62878;51.026;4.472;2022-09-09T15:58:25;-6043.63;;;20.59
74449;BMP280;62878;51.026;4.472;2022-09-09T16:00:50;-6039.91;;;20.37
74449;BMP280;62878;51.026;4.472;2022-09-09T16:03:16;-6042.09;;;20.50
74449;BMP280;62878;51.026;4.472;2022-09-09T16:05:41;-6044.47;;;20.64
74449;BMP280;62878;51.026;4.472;2022-09-09T16:08:07;-6049.00;;;20.92
74449;BMP280;62878;51.026;4.472;2022-09-09T16:10:32;-6051.69;;;21.08
74449;BMP280;62878;51.026;4.472;2022-09-09T16:12:57;-6050.16;;;20.99
74449;BMP280;62878;51.026;4.472;2022-09-09T16:15:22;-6053.53;;;21.19
74449;BMP280;62878;51.026;4.472;2022-09-09T16:17:48;-6054.19;;;21.23
74449;BMP280;62878;51.026;4.472;2022-09-09T16:20:14;-6052.44;;;21.12
74449;BMP280;62878;51.026;4.472;2022-09-09T16:22:39;-6055.03;;;21.28
74449;BMP280;62878;51.026;4.472;2022-09-09T16:25:05;-6055.28;;;21.30
74449;BMP280;62878;51.026;4.472;2022-09-09T16:27:31;-6053.69;;;21.20
74449;BMP280;62878;51.026;4.472;2022-09-09T16:29:57;-6055.38;;;21.30
74449;BMP280;62878;51.026;4.472;2022-09-09T16:32:22;-6053.78;;;21.20
74449;BMP280;62878;51.026;4.472;2022-09-09T16:34:47;-6055.47;;;21.31
74449;BMP280;62878;51.026;4.472;2022-09-09T16:37:13;-6055.53;;;21.31
74449;BMP280;62878;51.026;4.472;2022-09-09T16:39:38;-6052.34;;;21.12
74449;BMP280;62878;51.026;4.472;2022-09-09T16:42:03;-6055.78;;;21.33
74449;BMP280;62878;51.026;4.472;2022-09-09T16:44:30;-6055.53;;;21.31